19:12
Airports
History
Links
Donate
Help keep this website running!
PayPal
Bitcoin
This page is community maintained. The information is intended for PC simulator navigation or reference.
Always use approved charts for navigation.
CYFS
FORT SIMPSON
FORT SIMPSON (CYFS)
Fort Simpson, Northwest Territories, Canada
(U)
Lat/Lng:61° 45' 37.01" N / 121° 14' 11.99" W
61.760281 / -121.236665
Elevation:555'ft / 169mMSL
ID / ICAO:CYFS
Runways:1
Longest:13-31
Asphalt 1,819m / 5,967ft
METAR19:00 GMT 2017-11-18
Altimeter: 30.12
Visibility: 4.0 statute miles
Wind: 9 knots (from 330°)
Temp: -20°c / -4°f
Humidity: 76.8%

METAR: CYFS 181900Z 33009KT 4SM -SN SCT040 OVC070 M20/M23 A3012 RMK SC3AS5 SUN DMLY VSBL SLP225

(Powered by phpweather)
Airport Radio Frequencies
FT SIMPSON RDO: 122.2
Nearby VORs <50NM
Nearby NDBs
Runway 13 / 31
Dimensions:1818.6 x 45.7m 5967' x 150'ft
Surface:Asphalt
Edge Lights:Medium intensity
Runway 13 [A]Runway 31 [B]
Heading:156°TH 336°TH
Lat:
Lng:
61° 46' 3.99"N
121° 14' 37.36"W
61° 45' 10.03"N
121° 13' 46.63"W
User Notes and Comments
61° 45' 37.01" N / 121° 14' 11.99" W
Distance To
Airport ID:
Nearby Airports
4 JEAN MARIE RIVER 26.4 NM
CET9 SE 129°
(C) Nahanni Butte 87.2 NM
CBD6 SW 234°
(C) Trout Lake 91.3 NM
CEU9 S 180°
4 Mount Flett 109.0 NM
CBN6 SW 225°
4 Prairie Creek 118.1 NM
CBH4 W 263°
4 WRIGLEY 122.3 NM
CYWY NW 324°
4 Fort Providence 123.4 NM
CYJP ESE 104°
VFR Chart
Flight Planning at SkyVector.com